sensor_id;sensor_type;location;lat;lon;timestamp;temperature;humidity
76613;DHT22;65507;48.454;-2.058;2023-05-23T00:01:32;15.20;66.30
76613;DHT22;65507;48.454;-2.058;2023-05-23T00:03:57;15.20;66.20
76613;DHT22;65507;48.454;-2.058;2023-05-23T00:06:23;15.20;66.20
76613;DHT22;65507;48.454;-2.058;2023-05-23T00:08:48;15.20;66.20
76613;DHT22;65507;48.454;-2.058;2023-05-23T00:11:15;15.20;66.20
76613;DHT22;65507;48.454;-2.058;2023-05-23T00:13:41;15.30;66.20
76613;DHT22;65507;48.454;-2.058;2023-05-23T00:16:07;15.30;66.20
76613;DHT22;65507;48.454;-2.058;2023-05-23T00:18:34;15.30;66.10
76613;DHT22;65507;48.454;-2.058;2023-05-23T00:21:00;15.30;66.10
76613;DHT22;65507;48.454;-2.058;2023-05-23T00:23:26;15.30;66.10
76613;DHT22;65507;48.454;-2.058;2023-05-23T00:25:54;15.30;66.10
76613;DHT22;65507;48.454;-2.058;2023-05-23T00:28:20;15.40;66.10
76613;DHT22;65507;48.454;-2.058;2023-05-23T00:30:46;15.40;66.00
76613;DHT22;65507;48.454;-2.058;2023-05-23T00:33:13;15.40;65.90
76613;DHT22;65507;48.454;-2.058;2023-05-23T00:35:42;15.40;65.80
76613;DHT22;65507;48.454;-2.058;2023-05-23T00:38:08;15.50;65.90
76613;DHT22;65507;48.454;-2.058;2023-05-23T00:40:33;15.50;65.90
76613;DHT22;65507;48.454;-2.058;2023-05-23T00:42:59;15.50;65.90
76613;DHT22;65507;48.454;-2.058;2023-05-23T00:45:25;15.50;65.90
76613;DHT22;65507;48.454;-2.058;2023-05-23T00:47:51;15.50;65.90
76613;DHT22;65507;48.454;-2.058;2023-05-23T00:50:17;15.50;66.00
76613;DHT22;65507;48.454;-2.058;2023-05-23T00:52:43;15.50;66.00
76613;DHT22;65507;48.454;-2.058;2023-05-23T00:55:09;15.50;66.00
76613;DHT22;65507;48.454;-2.058;2023-05-23T00:57:35;15.50;66.20
76613;DHT22;65507;48.454;-2.058;2023-05-23T01:00:07;15.40;66.30
76613;DHT22;65507;48.454;-2.058;2023-05-23T01:02:34;15.40;66.50
76613;DHT22;65507;48.454;-2.058;2023-05-23T01:05:01;15.30;66.60
76613;DHT22;65507;48.454;-2.058;2023-05-23T01:07:27;15.20;66.70
76613;DHT22;65507;48.454;-2.058;2023-05-23T01:09:53;15.20;66.80
76613;DHT22;65507;48.454;-2.058;2023-05-23T01:12:29;15.10;66.90
76613;DHT22;65507;48.454;-2.058;2023-05-23T01:20:02;15.00;67.10
76613;DHT22;65507;48.454;-2.058;2023-05-23T01:27:56;14.90;67.30
76613;DHT22;65507;48.454;-2.058;2023-05-23T01:30:24;14.90;67.30
76613;DHT22;65507;48.454;-2.058;2023-05-23T01:32:53;14.90;67.30
76613;DHT22;65507;48.454;-2.058;2023-05-23T01:35:26;14.90;67.40
76613;DHT22;65507;48.454;-2.058;2023-05-23T01:37:52;14.80;67.40
76613;DHT22;65507;48.454;-2.058;2023-05-23T01:40:18;14.80;67.60
76613;DHT22;65507;48.454;-2.058;2023-05-23T01:42:44;14.70;67.60
76613;DHT22;65507;48.454;-2.058;2023-05-23T01:45:10;14.70;67.70
76613;DHT22;65507;48.454;-2.058;2023-05-23T01:47:36;14.70;67.80
76613;DHT22;65507;48.454;-2.058;2023-05-23T01:50:02;14.60;67.80
76613;DHT22;65507;48.454;-2.058;2023-05-23T01:52:27;14.60;67.70
76613;DHT22;65507;48.454;-2.058;2023-05-23T01:54:53;14.60;67.70
76613;DHT22;65507;48.454;-2.058;2023-05-23T01:57:19;14.60;67.80
76613;DHT22;65507;48.454;-2.058;2023-05-23T01:59:45;14.60;67.80
76613;DHT22;65507;48.454;-2.058;2023-05-23T02:02:11;14.60;68.00
76613;DHT22;65507;48.454;-2.058;2023-05-23T02:04:36;14.50;67.80
76613;DHT22;65507;48.454;-2.058;2023-05-23T02:07:02;14.50;67.90
76613;DHT22;65507;48.454;-2.058;2023-05-23T02:09:27;14.50;68.00
76613;DHT22;65507;48.454;-2.058;2023-05-23T02:11:53;14.50;68.10
76613;DHT22;65507;48.454;-2.058;2023-05-23T02:14:19;14.40;68.00
76613;DHT22;65507;48.454;-2.058;2023-05-23T02:16:44;14.40;68.00
76613;DHT22;65507;48.454;-2.058;2023-05-23T02:19:10;14.40;68.10
76613;DHT22;65507;48.454;-2.058;2023-05-23T02:21:36;14.40;68.30
76613;DHT22;65507;48.454;-2.058;2023-05-23T02:24:02;14.30;68.30
76613;DHT22;65507;48.454;-2.058;2023-05-23T02:26:27;14.30;68.40
76613;DHT22;65507;48.454;-2.058;2023-05-23T02:28:53;14.20;68.60
76613;DHT22;65507;48.454;-2.058;2023-05-23T02:31:19;14.20;68.70
76613;DHT22;65507;48.454;-2.058;2023-05-23T02:33:44;14.20;68.60
76613;DHT22;65507;48.454;-2.058;2023-05-23T02:36:10;14.20;68.70
76613;DHT22;65507;48.454;-2.058;2023-05-23T02:38:35;14.10;68.70
76613;DHT22;65507;48.454;-2.058;2023-05-23T02:41:01;14.10;68.80
76613;DHT22;65507;48.454;-2.058;2023-05-23T02:43:26;14.10;68.70
76613;DHT22;65507;48.454;-2.058;2023-05-23T02:45:52;14.10;68.80
76613;DHT22;65507;48.454;-2.058;2023-05-23T02:48:17;14.10;68.80
76613;DHT22;65507;48.454;-2.058;2023-05-23T02:50:43;14.10;68.80
76613;DHT22;65507;48.454;-2.058;2023-05-23T02:53:08;14.10;68.80
76613;DHT22;65507;48.454;-2.058;2023-05-23T02:55:34;14.10;68.70
76613;DHT22;65507;48.454;-2.058;2023-05-23T02:58:00;14.10;68.80
76613;DHT22;65507;48.454;-2.058;2023-05-23T03:00:30;14.10;68.70
76613;DHT22;65507;48.454;-2.058;2023-05-23T03:02:56;14.10;68.80
76613;DHT22;65507;48.454;-2.058;2023-05-23T03:05:22;14.10;68.90
76613;DHT22;65507;48.454;-2.058;2023-05-23T03:07:48;14.10;68.90
76613;DHT22;65507;48.454;-2.058;2023-05-23T03:10:13;14.10;69.00
76613;DHT22;65507;48.454;-2.058;2023-05-23T03:12:39;14.10;68.90
76613;DHT22;65507;48.454;-2.058;2023-05-23T03:15:05;14.20;68.80
76613;DHT22;65507;48.454;-2.058;2023-05-23T03:17:30;14.20;68.70
76613;DHT22;65507;48.454;-2.058;2023-05-23T03:19:56;14.20;68.60
76613;DHT22;65507;48.454;-2.058;2023-05-23T03:22:21;14.20;68.60
76613;DHT22;65507;48.454;-2.058;2023-05-23T03:24:47;14.20;68.60
76613;DHT22;65507;48.454;-2.058;2023-05-23T03:27:12;14.20;68.60
76613;DHT22;65507;48.454;-2.058;2023-05-23T03:29:38;14.20;68.80
76613;DHT22;65507;48.454;-2.058;2023-05-23T03:32:04;14.20;68.70
76613;DHT22;65507;48.454;-2.058;2023-05-23T03:34:29;14.30;68.70
76613;DHT22;65507;48.454;-2.058;2023-05-23T03:36:57;14.30;68.50
76613;DHT22;65507;48.454;-2.058;2023-05-23T03:39:22;14.40;68.50
76613;DHT22;65507;48.454;-2.058;2023-05-23T03:41:49;14.40;68.40
76613;DHT22;65507;48.454;-2.058;2023-05-23T03:44:15;14.50;68.40
76613;DHT22;65507;48.454;-2.058;2023-05-23T03:46:40;13.50;67.80
76613;DHT22;65507;48.454;-2.058;2023-05-23T03:49:06;14.50;68.40
76613;DHT22;65507;48.454;-2.058;2023-05-23T03:51:32;14.60;68.50
76613;DHT22;65507;48.454;-2.058;2023-05-23T03:53:58;14.60;68.40
76613;DHT22;65507;48.454;-2.058;2023-05-23T03:56:23;14.60;68.30
76613;DHT22;65507;48.454;-2.058;2023-05-23T03:58:49;14.60;68.30
76613;DHT22;65507;48.454;-2.058;2023-05-23T04:01:15;14.70;68.30
76613;DHT22;65507;48.454;-2.058;2023-05-23T04:03:40;14.70;68.30
76613;DHT22;65507;48.454;-2.058;2023-05-23T04:06:06;14.80;68.30
76613;DHT22;65507;48.454;-2.058;2023-05-23T04:08:32;14.80;68.50
76613;DHT22;65507;48.454;-2.058;2023-05-23T04:11:00;14.80;68.20
76613;DHT22;65507;48.454;-2.058;2023-05-23T04:13:26;14.90;68.30
76613;DHT22;65507;48.454;-2.058;2023-05-23T04:15:52;14.90;68.40
76613;DHT22;65507;48.454;-2.058;2023-05-23T04:18:20;14.90;68.40
76613;DHT22;65507;48.454;-2.058;2023-05-23T04:20:46;14.90;68.40
76613;DHT22;65507;48.454;-2.058;2023-05-23T04:23:12;14.90;68.50
76613;DHT22;65507;48.454;-2.058;2023-05-23T04:25:37;14.90;68.50
76613;DHT22;65507;48.454;-2.058;2023-05-23T04:28:04;15.00;68.60
76613;DHT22;65507;48.454;-2.058;2023-05-23T04:30:30;15.00;68.60
76613;DHT22;65507;48.454;-2.058;2023-05-23T04:32:56;15.00;68.60
76613;DHT22;65507;48.454;-2.058;2023-05-23T04:35:24;15.00;68.70
76613;DHT22;65507;48.454;-2.058;2023-05-23T04:37:51;15.00;68.70
76613;DHT22;65507;48.454;-2.058;2023-05-23T04:40:23;15.00;68.70
76613;DHT22;65507;48.454;-2.058;2023-05-23T04:42:49;15.00;68.80
76613;DHT22;65507;48.454;-2.058;2023-05-23T04:45:19;15.00;68.90
76613;DHT22;65507;48.454;-2.058;2023-05-23T04:47:44;15.00;68.90
76613;DHT22;65507;48.454;-2.058;2023-05-23T04:50:10;15.00;68.90
76613;DHT22;65507;48.454;-2.058;2023-05-23T04:52:35;15.00;68.90
76613;DHT22;65507;48.454;-2.058;2023-05-23T04:55:01;15.00;69.00
76613;DHT22;65507;48.454;-2.058;2023-05-23T04:57:27;15.00;69.10
76613;DHT22;65507;48.454;-2.058;2023-05-23T04:59:52;15.00;69.10
76613;DHT22;65507;48.454;-2.058;2023-05-23T05:02:18;15.00;69.10
76613;DHT22;65507;48.454;-2.058;2023-05-23T05:04:43;15.00;69.20
76613;DHT22;65507;48.454;-2.058;2023-05-23T05:07:09;15.00;69.10
76613;DHT22;65507;48.454;-2.058;2023-05-23T05:09:35;15.00;69.10
76613;DHT22;65507;48.454;-2.058;2023-05-23T05:12:01;15.00;69.10
76613;DHT22;65507;48.454;-2.058;2023-05-23T05:14:27;15.00;69.00
76613;DHT22;65507;48.454;-2.058;2023-05-23T05:16:52;15.00;68.90
76613;DHT22;65507;48.454;-2.058;2023-05-23T05:19:19;15.00;69.00
76613;DHT22;65507;48.454;-2.058;2023-05-23T05:21:45;15.00;68.90
76613;DHT22;65507;48.454;-2.058;2023-05-23T05:24:10;15.00;68.90
76613;DHT22;65507;48.454;-2.058;2023-05-23T05:26:37;15.00;68.90
76613;DHT22;65507;48.454;-2.058;2023-05-23T05:29:02;15.00;68.90
76613;DHT22;65507;48.454;-2.058;2023-05-23T05:31:28;15.00;69.00
76613;DHT22;65507;48.454;-2.058;2023-05-23T05:33:54;15.00;69.00
76613;DHT22;65507;48.454;-2.058;2023-05-23T05:36:19;15.10;69.00
76613;DHT22;65507;48.454;-2.058;2023-05-23T05:38:46;15.10;68.90
76613;DHT22;65507;48.454;-2.058;2023-05-23T05:41:11;15.10;68.90
76613;DHT22;65507;48.454;-2.058;2023-05-23T05:43:37;15.10;68.80
76613;DHT22;65507;48.454;-2.058;2023-05-23T05:46:03;15.10;68.80
76613;DHT22;65507;48.454;-2.058;2023-05-23T05:48:29;15.20;68.80
76613;DHT22;65507;48.454;-2.058;2023-05-23T05:50:54;15.20;68.70
76613;DHT22;65507;48.454;-2.058;2023-05-23T05:53:20;15.20;68.60
76613;DHT22;65507;48.454;-2.058;2023-05-23T05:55:45;15.20;68.50
76613;DHT22;65507;48.454;-2.058;2023-05-23T05:58:11;15.20;68.50
76613;DHT22;65507;48.454;-2.058;2023-05-23T06:00:36;15.30;68.60
76613;DHT22;65507;48.454;-2.058;2023-05-23T06:03:07;15.30;68.70
76613;DHT22;65507;48.454;-2.058;2023-05-23T06:05:33;15.30;68.60
76613;DHT22;65507;48.454;-2.058;2023-05-23T06:07:58;15.30;68.60
76613;DHT22;65507;48.454;-2.058;2023-05-23T06:10:24;15.30;68.40
76613;DHT22;65507;48.454;-2.058;2023-05-23T06:12:49;15.40;68.40
76613;DHT22;65507;48.454;-2.058;2023-05-23T06:15:15;15.40;68.30
76613;DHT22;65507;48.454;-2.058;2023-05-23T06:17:41;15.80;68.40
76613;DHT22;65507;48.454;-2.058;2023-05-23T06:20:06;15.50;68.10
76613;DHT22;65507;48.454;-2.058;2023-05-23T06:22:32;15.50;68.10
76613;DHT22;65507;48.454;-2.058;2023-05-23T06:24:58;15.60;68.10
76613;DHT22;65507;48.454;-2.058;2023-05-23T06:27:23;15.50;68.00
76613;DHT22;65507;48.454;-2.058;2023-05-23T06:29:49;15.50;68.10
76613;DHT22;65507;48.454;-2.058;2023-05-23T06:32:14;15.60;68.30
76613;DHT22;65507;48.454;-2.058;2023-05-23T06:34:40;15.60;68.10
76613;DHT22;65507;48.454;-2.058;2023-05-23T06:37:06;15.60;68.00
76613;DHT22;65507;48.454;-2.058;2023-05-23T06:39:31;15.60;68.00
76613;DHT22;65507;48.454;-2.058;2023-05-23T06:41:57;15.60;67.90
76613;DHT22;65507;48.454;-2.058;2023-05-23T06:44:22;15.70;67.90
76613;DHT22;65507;48.454;-2.058;2023-05-23T06:46:48;15.80;67.70
76613;DHT22;65507;48.454;-2.058;2023-05-23T06:49:14;15.80;67.60
76613;DHT22;65507;48.454;-2.058;2023-05-23T06:51:39;15.80;67.60
76613;DHT22;65507;48.454;-2.058;2023-05-23T06:54:05;15.80;67.70
76613;DHT22;65507;48.454;-2.058;2023-05-23T06:56:31;15.90;67.70
76613;DHT22;65507;48.454;-2.058;2023-05-23T06:58:56;15.80;67.70
76613;DHT22;65507;48.454;-2.058;2023-05-23T07:01:22;15.80;67.80
76613;DHT22;65507;48.454;-2.058;2023-05-23T07:03:47;15.90;67.80
76613;DHT22;65507;48.454;-2.058;2023-05-23T07:06:13;15.90;67.70
76613;DHT22;65507;48.454;-2.058;2023-05-23T07:08:39;15.90;67.80
76613;DHT22;65507;48.454;-2.058;2023-05-23T07:11:05;15.80;68.10
76613;DHT22;65507;48.454;-2.058;2023-05-23T07:13:31;15.80;68.00
76613;DHT22;65507;48.454;-2.058;2023-05-23T07:15:56;15.80;68.00
76613;DHT22;65507;48.454;-2.058;2023-05-23T07:18:22;15.80;68.00
76613;DHT22;65507;48.454;-2.058;2023-05-23T07:20:48;15.80;68.00
76613;DHT22;65507;48.454;-2.058;2023-05-23T07:23:14;15.80;68.10
76613;DHT22;65507;48.454;-2.058;2023-05-23T07:25:39;15.80;68.20
76613;DHT22;65507;48.454;-2.058;2023-05-23T07:28:07;15.80;68.20
76613;DHT22;65507;48.454;-2.058;2023-05-23T07:30:32;15.80;68.10
76613;DHT22;65507;48.454;-2.058;2023-05-23T07:32:58;15.80;68.20
76613;DHT22;65507;48.454;-2.058;2023-05-23T07:35:23;15.80;68.30
76613;DHT22;65507;48.454;-2.058;2023-05-23T07:37:51;15.70;68.20
76613;DHT22;65507;48.454;-2.058;2023-05-23T07:40:17;15.80;68.20
76613;DHT22;65507;48.454;-2.058;2023-05-23T07:42:43;15.80;68.20
76613;DHT22;65507;48.454;-2.058;2023-05-23T07:45:08;15.70;68.10
76613;DHT22;65507;48.454;-2.058;2023-05-23T07:47:37;15.70;68.30
76613;DHT22;65507;48.454;-2.058;2023-05-23T07:50:03;15.70;68.40
76613;DHT22;65507;48.454;-2.058;2023-05-23T07:52:29;15.70;68.30
76613;DHT22;65507;48.454;-2.058;2023-05-23T07:54:55;15.70;68.30
76613;DHT22;65507;48.454;-2.058;2023-05-23T07:57:21;15.70;68.20
76613;DHT22;65507;48.454;-2.058;2023-05-23T07:59:46;15.70;68.10
76613;DHT22;65507;48.454;-2.058;2023-05-23T08:02:12;15.70;68.20
76613;DHT22;65507;48.454;-2.058;2023-05-23T08:04:37;15.70;68.20
76613;DHT22;65507;48.454;-2.058;2023-05-23T08:07:04;15.70;68.20
76613;DHT22;65507;48.454;-2.058;2023-05-23T08:09:30;15.80;68.10
76613;DHT22;65507;48.454;-2.058;2023-05-23T08:11:55;15.80;68.00
76613;DHT22;65507;48.454;-2.058;2023-05-23T08:14:21;15.90;67.90
76613;DHT22;65507;48.454;-2.058;2023-05-23T08:16:46;16.10;67.70
76613;DHT22;65507;48.454;-2.058;2023-05-23T08:19:13;16.10;67.60
76613;DHT22;65507;48.454;-2.058;2023-05-23T08:21:38;16.10;67.40
76613;DHT22;65507;48.454;-2.058;2023-05-23T08:24:04;16.20;67.30
76613;DHT22;65507;48.454;-2.058;2023-05-23T08:26:30;16.30;67.20
76613;DHT22;65507;48.454;-2.058;2023-05-23T08:29:00;16.40;67.20
76613;DHT22;65507;48.454;-2.058;2023-05-23T08:31:29;16.50;67.00
76613;DHT22;65507;48.454;-2.058;2023-05-23T08:33:55;16.60;67.00
76613;DHT22;65507;48.454;-2.058;2023-05-23T08:36:21;16.60;66.90
76613;DHT22;65507;48.454;-2.058;2023-05-23T08:38:49;16.70;67.00
76613;DHT22;65507;48.454;-2.058;2023-05-23T08:41:23;16.40;67.00
76613;DHT22;65507;48.454;-2.058;2023-05-23T08:43:48;15.60;66.90
76613;DHT22;65507;48.454;-2.058;2023-05-23T08:46:14;16.50;67.40
76613;DHT22;65507;48.454;-2.058;2023-05-23T08:48:40;16.50;67.40
76613;DHT22;65507;48.454;-2.058;2023-05-23T08:51:06;16.50;67.50
76613;DHT22;65507;48.454;-2.058;2023-05-23T08:53:33;16.50;67.50
76613;DHT22;65507;48.454;-2.058;2023-05-23T08:56:01;16.60;67.20
76613;DHT22;65507;48.454;-2.058;2023-05-23T08:58:30;16.60;67.10
76613;DHT22;65507;48.454;-2.058;2023-05-23T09:00:58;16.80;67.00
76613;DHT22;65507;48.454;-2.058;2023-05-23T09:03:27;16.90;66.70
76613;DHT22;65507;48.454;-2.058;2023-05-23T09:05:54;17.00;66.40
76613;DHT22;65507;48.454;-2.058;2023-05-23T09:08:19;17.10;66.30
76613;DHT22;65507;48.454;-2.058;2023-05-23T09:10:46;17.10;66.30
76613;DHT22;65507;48.454;-2.058;2023-05-23T09:13:14;17.10;66.30
76613;DHT22;65507;48.454;-2.058;2023-05-23T09:15:54;17.20;66.30
76613;DHT22;65507;48.454;-2.058;2023-05-23T09:18:21;17.20;66.40
76613;DHT22;65507;48.454;-2.058;2023-05-23T09:20:46;17.20;66.40
76613;DHT22;65507;48.454;-2.058;2023-05-23T09:23:12;17.30;66.30
76613;DHT22;65507;48.454;-2.058;2023-05-23T09:25:56;17.30;66.30
76613;DHT22;65507;48.454;-2.058;2023-05-23T09:28:25;17.30;66.20
76613;DHT22;65507;48.454;-2.058;2023-05-23T09:30:58;17.30;66.20
76613;DHT22;65507;48.454;-2.058;2023-05-23T09:33:27;17.40;66.20
76613;DHT22;65507;48.454;-2.058;2023-05-23T09:35:53;17.40;66.10
76613;DHT22;65507;48.454;-2.058;2023-05-23T09:38:19;17.50;66.00
76613;DHT22;65507;48.454;-2.058;2023-05-23T09:40:45;17.60;65.80
76613;DHT22;65507;48.454;-2.058;2023-05-23T09:43:11;17.80;65.60
76613;DHT22;65507;48.454;-2.058;2023-05-23T09:45:41;18.00;65.20
76613;DHT22;65507;48.454;-2.058;2023-05-23T09:48:10;18.10;65.10
76613;DHT22;65507;48.454;-2.058;2023-05-23T09:50:36;18.20;65.10
76613;DHT22;65507;48.454;-2.058;2023-05-23T09:53:02;18.30;64.60
76613;DHT22;65507;48.454;-2.058;2023-05-23T09:55:27;18.40;64.70
76613;DHT22;65507;48.454;-2.058;2023-05-23T09:57:53;18.40;64.70
76613;DHT22;65507;48.454;-2.058;2023-05-23T10:00:22;18.50;64.70
76613;DHT22;65507;48.454;-2.058;2023-05-23T10:05:47;18.60;64.40
76613;DHT22;65507;48.454;-2.058;2023-05-23T10:08:14;18.70;64.50
76613;DHT22;65507;48.454;-2.058;2023-05-23T10:13:15;18.70;64.60
76613;DHT22;65507;48.454;-2.058;2023-05-23T10:15:41;18.80;64.50
76613;DHT22;65507;48.454;-2.058;2023-05-23T10:18:17;18.80;64.30
76613;DHT22;65507;48.454;-2.058;2023-05-23T10:20:46;18.80;64.40
76613;DHT22;65507;48.454;-2.058;2023-05-23T10:23:13;18.80;64.40
76613;DHT22;65507;48.454;-2.058;2023-05-23T10:25:39;18.80;64.40
76613;DHT22;65507;48.454;-2.058;2023-05-23T10:28:06;18.70;64.40
76613;DHT22;65507;48.454;-2.058;2023-05-23T10:30:32;18.80;64.30
76613;DHT22;65507;48.454;-2.058;2023-05-23T10:32:58;18.80;64.40
76613;DHT22;65507;48.454;-2.058;2023-05-23T10:38:11;19.00;64.10
76613;DHT22;65507;48.454;-2.058;2023-05-23T10:45:47;19.50;63.40
76613;DHT22;65507;48.454;-2.058;2023-05-23T10:48:51;19.50;63.40
76613;DHT22;65507;48.454;-2.058;2023-05-23T10:51:07;19.40;63.40
76613;DHT22;65507;48.454;-2.058;2023-05-23T10:53:34;19.50;63.40
76613;DHT22;65507;48.454;-2.058;2023-05-23T10:56:00;19.50;63.50
76613;DHT22;65507;48.454;-2.058;2023-05-23T10:58:28;19.50;63.50
76613;DHT22;65507;48.454;-2.058;2023-05-23T11:00:54;19.60;63.50
76613;DHT22;65507;48.454;-2.058;2023-05-23T11:05:56;19.80;63.00
76613;DHT22;65507;48.454;-2.058;2023-05-23T11:08:22;19.80;63.00
76613;DHT22;65507;48.454;-2.058;2023-05-23T11:13:21;19.80;63.10
76613;DHT22;65507;48.454;-2.058;2023-05-23T11:15:46;19.90;63.10
76613;DHT22;65507;48.454;-2.058;2023-05-23T11:18:19;19.90;62.90
76613;DHT22;65507;48.454;-2.058;2023-05-23T11:20:45;20.00;62.80
76613;DHT22;65507;48.454;-2.058;2023-05-23T11:23:11;20.10;62.60
76613;DHT22;65507;48.454;-2.058;2023-05-23T11:25:44;20.30;62.40
76613;DHT22;65507;48.454;-2.058;2023-05-23T11:28:10;20.30;62.20
76613;DHT22;65507;48.454;-2.058;2023-05-23T11:30:36;20.30;63.10
76613;DHT22;65507;48.454;-2.058;2023-05-23T11:33:05;20.30;62.10
76613;DHT22;65507;48.454;-2.058;2023-05-23T11:35:32;20.30;62.00
76613;DHT22;65507;48.454;-2.058;2023-05-23T11:37:58;20.40;62.00
76613;DHT22;65507;48.454;-2.058;2023-05-23T11:42:50;20.40;61.40
76613;DHT22;65507;48.454;-2.058;2023-05-23T11:45:18;20.20;61.10
76613;DHT22;65507;48.454;-2.058;2023-05-23T11:47:43;20.50;61.00
76613;DHT22;65507;48.454;-2.058;2023-05-23T11:50:09;20.50;60.70
76613;DHT22;65507;48.454;-2.058;2023-05-23T11:52:35;20.50;60.50
76613;DHT22;65507;48.454;-2.058;2023-05-23T11:55:00;20.40;60.30
76613;DHT22;65507;48.454;-2.058;2023-05-23T11:57:26;20.50;60.20
76613;DHT22;65507;48.454;-2.058;2023-05-23T11:59:52;20.50;59.80
76613;DHT22;65507;48.454;-2.058;2023-05-23T12:02:18;20.50;59.70
76613;DHT22;65507;48.454;-2.058;2023-05-23T12:04:44;20.60;59.70
76613;DHT22;65507;48.454;-2.058;2023-05-23T12:07:10;21.50;59.80
76613;DHT22;65507;48.454;-2.058;2023-05-23T12:09:44;20.80;59.40
76613;DHT22;65507;48.454;-2.058;2023-05-23T12:12:11;20.90;59.10
76613;DHT22;65507;48.454;-2.058;2023-05-23T12:14:36;20.90;58.80
76613;DHT22;65507;48.454;-2.058;2023-05-23T12:17:11;21.00;58.90
76613;DHT22;65507;48.454;-2.058;2023-05-23T12:19:38;21.10;58.60
76613;DHT22;65507;48.454;-2.058;2023-05-23T12:22:04;21.20;58.50
76613;DHT22;65507;48.454;-2.058;2023-05-23T12:24:31;21.30;58.50
76613;DHT22;65507;48.454;-2.058;2023-05-23T12:27:01;21.40;58.30
76613;DHT22;65507;48.454;-2.058;2023-05-23T12:29:31;21.50;58.20
76613;DHT22;65507;48.454;-2.058;2023-05-23T12:31:57;21.50;57.90
76613;DHT22;65507;48.454;-2.058;2023-05-23T12:34:23;21.50;57.90
76613;DHT22;65507;48.454;-2.058;2023-05-23T12:36:48;21.50;58.10
76613;DHT22;65507;48.454;-2.058;2023-05-23T12:39:14;21.50;58.20
76613;DHT22;65507;48.454;-2.058;2023-05-23T12:41:40;21.70;58.20
76613;DHT22;65507;48.454;-2.058;2023-05-23T12:44:06;21.80;57.90
76613;DHT22;65507;48.454;-2.058;2023-05-23T12:46:32;21.80;57.70
76613;DHT22;65507;48.454;-2.058;2023-05-23T12:48:57;21.80;57.40
76613;DHT22;65507;48.454;-2.058;2023-05-23T12:51:26;21.80;57.60
76613;DHT22;65507;48.454;-2.058;2023-05-23T12:53:55;22.50;58.10
76613;DHT22;65507;48.454;-2.058;2023-05-23T12:56:21;22.10;57.60
76613;DHT22;65507;48.454;-2.058;2023-05-23T12:58:47;22.20;57.30
76613;DHT22;65507;48.454;-2.058;2023-05-23T13:01:13;22.30;57.30
76613;DHT22;65507;48.454;-2.058;2023-05-23T13:03:38;22.20;57.00
76613;DHT22;65507;48.454;-2.058;2023-05-23T13:06:04;22.10;57.40
76613;DHT22;65507;48.454;-2.058;2023-05-23T13:08:30;22.00;57.70
76613;DHT22;65507;48.454;-2.058;2023-05-23T13:10:55;22.00;57.80
76613;DHT22;65507;48.454;-2.058;2023-05-23T13:13:21;22.00;57.90
76613;DHT22;65507;48.454;-2.058;2023-05-23T13:15:47;22.00;57.90
76613;DHT22;65507;48.454;-2.058;2023-05-23T13:18:12;22.10;57.70
76613;DHT22;65507;48.454;-2.058;2023-05-23T13:20:38;22.00;57.70
76613;DHT22;65507;48.454;-2.058;2023-05-23T13:23:04;22.00;57.60
76613;DHT22;65507;48.454;-2.058;2023-05-23T13:25:30;21.90;57.90
76613;DHT22;65507;48.454;-2.058;2023-05-23T13:27:55;21.70;58.10
76613;DHT22;65507;48.454;-2.058;2023-05-23T13:30:22;21.60;58.10
76613;DHT22;65507;48.454;-2.058;2023-05-23T13:32:47;21.50;58.30
76613;DHT22;65507;48.454;-2.058;2023-05-23T13:35:13;21.60;58.20
76613;DHT22;65507;48.454;-2.058;2023-05-23T13:37:39;21.70;58.10
76613;DHT22;65507;48.454;-2.058;2023-05-23T13:40:04;21.80;57.80
76613;DHT22;65507;48.454;-2.058;2023-05-23T13:42:30;21.80;57.60
76613;DHT22;65507;48.454;-2.058;2023-05-23T13:44:56;22.30;57.90
76613;DHT22;65507;48.454;-2.058;2023-05-23T13:47:22;21.90;57.30
76613;DHT22;65507;48.454;-2.058;2023-05-23T13:49:47;22.00;57.20
76613;DHT22;65507;48.454;-2.058;2023-05-23T13:52:19;22.10;57.10
76613;DHT22;65507;48.454;-2.058;2023-05-23T13:54:44;22.00;56.90
76613;DHT22;65507;48.454;-2.058;2023-05-23T13:57:11;22.00;57.00
76613;DHT22;65507;48.454;-2.058;2023-05-23T13:59:36;22.00;56.90
76613;DHT22;65507;48.454;-2.058;2023-05-23T14:02:02;22.00;56.80
76613;DHT22;65507;48.454;-2.058;2023-05-23T14:04:27;22.00;57.10
76613;DHT22;65507;48.454;-2.058;2023-05-23T14:06:53;22.00;56.70
76613;DHT22;65507;48.454;-2.058;2023-05-23T14:09:19;22.00;56.80
76613;DHT22;65507;48.454;-2.058;2023-05-23T14:11:44;22.00;56.90
76613;DHT22;65507;48.454;-2.058;2023-05-23T14:14:10;22.10;56.80
76613;DHT22;65507;48.454;-2.058;2023-05-23T14:16:35;22.20;56.70
76613;DHT22;65507;48.454;-2.058;2023-05-23T14:19:01;22.30;56.60
76613;DHT22;65507;48.454;-2.058;2023-05-23T14:21:26;22.30;56.40
76613;DHT22;65507;48.454;-2.058;2023-05-23T14:23:52;22.30;56.60
76613;DHT22;65507;48.454;-2.058;2023-05-23T14:26:18;22.30;56.40
76613;DHT22;65507;48.454;-2.058;2023-05-23T14:28:43;22.30;56.20
76613;DHT22;65507;48.454;-2.058;2023-05-23T14:31:09;22.20;56.40
76613;DHT22;65507;48.454;-2.058;2023-05-23T14:33:35;22.10;56.70
76613;DHT22;65507;48.454;-2.058;2023-05-23T14:36:01;21.90;56.80
76613;DHT22;65507;48.454;-2.058;2023-05-23T14:38:27;21.90;57.00
76613;DHT22;65507;48.454;-2.058;2023-05-23T14:40:52;21.80;56.90
76613;DHT22;65507;48.454;-2.058;2023-05-23T14:43:19;21.60;57.00
76613;DHT22;65507;48.454;-2.058;2023-05-23T14:45:44;21.50;57.20
76613;DHT22;65507;48.454;-2.058;2023-05-23T14:48:10;21.40;57.40
76613;DHT22;65507;48.454;-2.058;2023-05-23T14:50:36;21.50;57.40
76613;DHT22;65507;48.454;-2.058;2023-05-23T14:53:02;21.40;57.40
76613;DHT22;65507;48.454;-2.058;2023-05-23T14:55:27;21.40;57.30
76613;DHT22;65507;48.454;-2.058;2023-05-23T14:57:53;21.20;57.40
76613;DHT22;65507;48.454;-2.058;2023-05-23T15:00:18;21.00;57.50
76613;DHT22;65507;48.454;-2.058;2023-05-23T15:02:44;21.00;57.70
76613;DHT22;65507;48.454;-2.058;2023-05-23T15:05:12;20.90;57.80
76613;DHT22;65507;48.454;-2.058;2023-05-23T15:07:39;20.70;58.00
76613;DHT22;65507;48.454;-2.058;2023-05-23T15:10:05;20.50;58.20
76613;DHT22;65507;48.454;-2.058;2023-05-23T15:12:31;20.30;58.40
76613;DHT22;65507;48.454;-2.058;2023-05-23T15:14:57;20.10;58.50
76613;DHT22;65507;48.454;-2.058;2023-05-23T15:17:36;19.90;58.60
76613;DHT22;65507;48.454;-2.058;2023-05-23T15:20:02;19.80;58.70
76613;DHT22;65507;48.454;-2.058;2023-05-23T15:22:28;19.70;58.70
76613;DHT22;65507;48.454;-2.058;2023-05-23T15:24:53;19.70;58.70
76613;DHT22;65507;48.454;-2.058;2023-05-23T15:27:19;19.60;58.60
76613;DHT22;65507;48.454;-2.058;2023-05-23T15:29:46;19.50;58.50
76613;DHT22;65507;48.454;-2.058;2023-05-23T15:32:12;19.50;58.40
76613;DHT22;65507;48.454;-2.058;2023-05-23T15:34:37;19.40;58.40
76613;DHT22;65507;48.454;-2.058;2023-05-23T15:37:03;19.30;58.30
76613;DHT22;65507;48.454;-2.058;2023-05-23T15:39:28;19.20;58.60
76613;DHT22;65507;48.454;-2.058;2023-05-23T15:41:54;19.10;58.60